Time;durP1;ratioP1;P1;durP2;ratioP2;P2;SDS_P1;SDS_P2;PMS_P1;PMS_P2;Temp;Humidity;BMP_temperature;BMP_pressure;BME280_temperature;BME280_humidity;BME280_pressure;Samples;Min_cycle;Max_cycle;Signal;HPM_P1;HPM_P2
2023/09/09 00:01:13;;;;;;;15.27;6.63;;;19.10;99.90;;;;;;5020004;28;20036;-68
2023/09/09 00:03:39;;;;;;;9.50;5.68;;;19.10;99.90;;;;;;5037541;28;20107;-69
2023/09/09 00:06:11;;;;;;;8.10;5.35;;;19.10;99.90;;;;;;5037326;28;20029;-69
2023/09/09 00:08:37;;;;;;;14.15;6.68;;;19.10;99.90;;;;;;5019835;28;20041;-68
2023/09/09 00:11:03;;;;;;;9.25;5.55;;;19.00;99.90;;;;;;5037283;28;20021;-68
2023/09/09 00:13:28;;;;;;;11.70;6.28;;;19.00;99.90;;;;;;5020161;28;20040;-68
2023/09/09 00:15:54;;;;;;;8.55;5.97;;;18.90;99.90;;;;;;5020905;28;20044;-68
2023/09/09 00:18:20;;;;;;;9.68;5.70;;;18.90;99.90;;;;;;5020658;28;20028;-69
2023/09/09 00:20:46;;;;;;;10.68;6.47;;;18.90;99.90;;;;;;5019680;28;20025;-69
2023/09/09 00:23:12;;;;;;;11.95;6.45;;;18.80;99.90;;;;;;5019844;28;20144;-68
2023/09/09 00:25:39;;;;;;;11.20;6.53;;;18.80;99.90;;;;;;5019674;28;20033;-69
2023/09/09 00:28:05;;;;;;;8.70;5.78;;;18.70;99.90;;;;;;5037509;28;20074;-68
2023/09/09 00:30:31;;;;;;;11.25;6.15;;;18.70;99.90;;;;;;5019522;28;20038;-69
2023/09/09 00:32:58;;;;;;;11.25;6.78;;;18.70;99.90;;;;;;5037061;28;20028;-69
2023/09/09 00:35:23;;;;;;;8.43;5.95;;;18.60;99.90;;;;;;5019616;28;20025;-69
2023/09/09 00:37:49;;;;;;;9.23;6.38;;;18.60;99.90;;;;;;5019818;28;20095;-68
2023/09/09 00:40:14;;;;;;;10.02;6.15;;;18.60;99.90;;;;;;5019928;28;20029;-68
2023/09/09 00:42:40;;;;;;;8.07;5.30;;;18.60;99.90;;;;;;5037247;28;20029;-69
2023/09/09 00:45:06;;;;;;;6.22;4.30;;;18.50;99.90;;;;;;5019708;28;20025;-68
2023/09/09 00:47:32;;;;;;;7.35;5.60;;;18.40;99.90;;;;;;5019474;28;20080;-68
2023/09/09 00:49:59;;;;;;;9.10;5.38;;;18.40;99.90;;;;;;5037023;28;20049;-68
2023/09/09 00:52:24;;;;;;;7.72;5.40;;;18.30;99.90;;;;;;5019529;28;20022;-69
2023/09/09 00:54:50;;;;;;;9.73;4.82;;;18.10;99.90;;;;;;5022697;28;20022;-68
2023/09/09 00:57:19;;;;;;;5.93;4.45;;;18.00;99.90;;;;;;5040708;28;20029;-69
2023/09/09 00:59:46;;;;;;;9.95;5.00;;;17.90;99.90;;;;;;5041119;28;20026;-70
2023/09/09 01:02:11;;;;;;;7.70;5.25;;;18.00;99.90;;;;;;5023455;28;20052;-68
2023/09/09 01:04:37;;;;;;;7.90;4.95;;;18.00;99.90;;;;;;5023516;28;20025;-68
2023/09/09 01:07:04;;;;;;;7.78;4.75;;;18.10;99.90;;;;;;5023101;28;20109;-69
2023/09/09 01:09:30;;;;;;;7.75;4.57;;;18.10;99.90;;;;;;5040592;28;20014;-69
2023/09/09 01:11:56;;;;;;;8.38;5.40;;;18.10;99.90;;;;;;5023424;28;20028;-68
2023/09/09 01:14:21;;;;;;;9.15;5.55;;;18.10;99.90;;;;;;5023010;28;20025;-68
2023/09/09 01:16:51;;;;;;;9.05;5.47;;;18.20;99.90;;;;;;5023076;28;20157;-68
2023/09/09 01:19:18;;;;;;;11.35;6.68;;;18.20;99.90;;;;;;5022890;28;20025;-69
2023/09/09 01:21:45;;;;;;;9.80;6.15;;;18.20;99.90;;;;;;5040473;28;20049;-68
2023/09/09 01:24:15;;;;;;;9.57;5.60;;;18.30;99.90;;;;;;5040298;28;20033;-68
2023/09/09 01:26:42;;;;;;;11.82;5.82;;;18.20;99.90;;;;;;5040429;28;20021;-69
2023/09/09 01:29:07;;;;;;;9.82;5.80;;;18.20;99.90;;;;;;5022661;28;20033;-69
2023/09/09 01:31:33;;;;;;;11.70;6.13;;;18.20;99.90;;;;;;5022772;28;20021;-69
2023/09/09 01:33:58;;;;;;;8.50;5.60;;;18.10;99.90;;;;;;5022823;28;20021;-69
2023/09/09 01:36:24;;;;;;;9.13;5.93;;;18.20;99.90;;;;;;5022789;28;20022;-69
2023/09/09 01:38:49;;;;;;;11.48;5.32;;;18.10;99.90;;;;;;5039977;28;20047;-69
2023/09/09 01:41:15;;;;;;;7.47;5.10;;;18.10;99.90;;;;;;5023676;28;20022;-69
2023/09/09 01:43:40;;;;;;;9.63;5.05;;;17.90;99.90;;;;;;5039864;28;20029;-69
2023/09/09 01:46:06;;;;;;;10.75;5.65;;;17.80;99.90;;;;;;5039834;28;20040;-69
2023/09/09 01:48:31;;;;;;;9.60;5.38;;;17.70;99.90;;;;;;5022309;28;20052;-69
2023/09/09 01:50:57;;;;;;;7.80;5.00;;;17.70;99.90;;;;;;5040184;28;20053;-69
2023/09/09 01:53:22;;;;;;;7.75;5.10;;;17.70;99.90;;;;;;5039780;28;20029;-68
2023/09/09 01:55:48;;;;;;;7.32;5.13;;;17.70;99.90;;;;;;5022273;28;20035;-68
2023/09/09 01:58:15;;;;;;;9.63;5.80;;;17.70;99.90;;;;;;5022492;28;20031;-68
2023/09/09 02:00:41;;;;;;;9.52;5.35;;;17.70;99.90;;;;;;5039612;28;20111;-68
2023/09/09 02:03:07;;;;;;;9.05;5.35;;;17.70;99.90;;;;;;5039705;28;20021;-68
2023/09/09 02:05:33;;;;;;;14.52;4.90;;;17.70;99.90;;;;;;5039538;28;20109;-69
2023/09/09 02:07:59;;;;;;;8.95;5.20;;;17.70;99.90;;;;;;5039489;28;20045;-69
2023/09/09 02:10:24;;;;;;;11.70;6.18;;;17.80;99.90;;;;;;5039438;28;20052;-69
2023/09/09 02:12:50;;;;;;;11.07;6.32;;;17.80;99.90;;;;;;5022024;28;20079;-70
2023/09/09 02:15:15;;;;;;;10.25;5.80;;;17.80;99.90;;;;;;5040034;28;20057;-70
2023/09/09 02:17:41;;;;;;;10.02;5.82;;;17.80;99.90;;;;;;5021923;28;20097;-70
2023/09/09 02:20:07;;;;;;;11.23;6.22;;;17.80;99.90;;;;;;5039170;28;20026;-68
2023/09/09 02:22:33;;;;;;;9.10;5.65;;;17.70;99.90;;;;;;5039627;28;20032;-69
2023/09/09 02:24:59;;;;;;;10.32;5.20;;;17.70;99.90;;;;;;5039061;28;20025;-69
2023/09/09 02:27:24;;;;;;;9.80;5.47;;;17.60;99.90;;;;;;5039249;28;20018;-68
2023/09/09 02:29:50;;;;;;;10.02;5.85;;;17.50;99.90;;;;;;5038909;28;20113;-69
2023/09/09 02:32:17;;;;;;;14.50;5.65;;;17.50;99.90;;;;;;5021739;28;20018;-69
2023/09/09 02:34:42;;;;;;;13.10;6.80;;;17.50;99.90;;;;;;5021691;28;20056;-69
2023/09/09 02:37:19;;;;;;;10.07;5.40;;;17.60;99.90;;;;;;5021878;28;20080;-69
2023/09/09 02:39:49;;;;;;;12.27;5.68;;;17.50;99.90;;;;;;5021575;28;20063;-68
2023/09/09 02:42:19;;;;;;;9.93;5.60;;;17.70;99.90;;;;;;5038830;28;20018;-69
2023/09/09 02:44:44;;;;;;;10.20;6.35;;;17.80;99.90;;;;;;5022314;28;20034;-69
2023/09/09 02:47:12;;;;;;;8.20;5.90;;;17.80;99.90;;;;;;5038808;28;20104;-68
2023/09/09 02:49:39;;;;;;;9.52;5.90;;;17.70;99.90;;;;;;5038710;28;20028;-68
2023/09/09 02:52:06;;;;;;;7.15;5.32;;;17.60;99.90;;;;;;5021290;28;20032;-68
2023/09/09 02:54:32;;;;;;;8.35;5.57;;;17.60;99.90;;;;;;5038545;28;20022;-69
2023/09/09 02:56:58;;;;;;;7.75;5.40;;;17.60;99.90;;;;;;5038713;28;20026;-68
2023/09/09 02:59:24;;;;;;;10.10;6.18;;;17.50;99.90;;;;;;5038497;28;20022;-68
2023/09/09 03:01:49;;;;;;;10.70;6.03;;;17.50;99.90;;;;;;5038501;28;20025;-69
2023/09/09 03:04:15;;;;;;;12.30;6.45;;;17.60;99.90;;;;;;5020994;28;20026;-68
2023/09/09 03:06:41;;;;;;;10.63;6.15;;;17.50;99.90;;;;;;5021013;28;20052;-69
2023/09/09 03:09:06;;;;;;;10.30;5.95;;;17.60;99.90;;;;;;5021274;28;20025;-68
2023/09/09 03:11:32;;;;;;;11.02;6.15;;;17.50;99.90;;;;;;5038601;28;20022;-69
2023/09/09 03:13:58;;;;;;;9.93;6.07;;;17.50;99.90;;;;;;5038307;28;20026;-68
2023/09/09 03:16:24;;;;;;;14.57;6.47;;;17.60;99.90;;;;;;5020553;28;20021;-69
2023/09/09 03:18:50;;;;;;;10.85;6.63;;;17.40;99.90;;;;;;5038144;28;20028;-68
2023/09/09 03:21:15;;;;;;;17.77;5.75;;;17.40;99.90;;;;;;5038477;28;20029;-69
2023/09/09 03:23:41;;;;;;;15.23;6.47;;;17.30;99.90;;;;;;5021030;28;20032;-68
2023/09/09 03:26:06;;;;;;;16.10;8.10;;;17.30;99.90;;;;;;5021783;28;20030;-68
2023/09/09 03:28:32;;;;;;;10.45;5.75;;;17.20;99.90;;;;;;5020724;28;20116;-68
2023/09/09 03:30:59;;;;;;;10.25;6.30;;;17.20;99.90;;;;;;5021081;28;20026;-69
2023/09/09 03:33:27;;;;;;;9.77;5.32;;;17.10;99.90;;;;;;5020869;28;20048;-69
2023/09/09 03:35:52;;;;;;;11.57;6.63;;;17.10;99.90;;;;;;5020366;28;20105;-68
2023/09/09 03:38:18;;;;;;;10.70;6.30;;;17.10;99.90;;;;;;5037763;28;20061;-69
2023/09/09 03:40:44;;;;;;;10.88;6.22;;;17.10;99.90;;;;;;5038063;28;20029;-69
2023/09/09 03:43:11;;;;;;;7.40;5.25;;;17.10;99.90;;;;;;5021386;28;20026;-68
2023/09/09 03:45:36;;;;;;;11.02;5.47;;;17.10;99.90;;;;;;5037951;28;20095;-68
2023/09/09 03:48:04;;;;;;;9.73;5.88;;;17.10;99.90;;;;;;5037771;28;20065;-69
2023/09/09 03:50:30;;;;;;;9.40;5.47;;;17.00;99.90;;;;;;5020210;28;20028;-68
2023/09/09 03:52:55;;;;;;;13.07;6.22;;;17.00;99.90;;;;;;5020307;28;20021;-68
2023/09/09 03:55:21;;;;;;;8.40;5.30;;;17.10;99.90;;;;;;5020132;28;20030;-68
2023/09/09 03:57:46;;;;;;;9.70;4.95;;;17.00;99.90;;;;;;5020173;28;20026;-68
2023/09/09 04:00:13;;;;;;;8.80;5.28;;;17.10;99.90;;;;;;5019947;28;20121;-68
2023/09/09 04:02:38;;;;;;;8.43;5.32;;;17.10;99.90;;;;;;5037379;28;20120;-68
2023/09/09 04:05:05;;;;;;;10.20;5.90;;;17.10;99.90;;;;;;5019899;28;20025;-68
2023/09/09 04:07:35;;;;;;;10.45;5.32;;;17.00;99.90;;;;;;5019952;28;20028;-68
2023/09/09 04:10:04;;;;;;;11.25;5.50;;;16.90;99.90;;;;;;5037203;28;20018;-68
2023/09/09 04:12:30;;;;;;;8.40;5.75;;;16.90;99.90;;;;;;5021005;28;20041;-69
2023/09/09 04:14:55;;;;;;;7.90;5.32;;;16.90;99.90;;;;;;5019895;28;20053;-68
2023/09/09 04:17:21;;;;;;;9.15;5.50;;;16.90;99.90;;;;;;5037424;28;20030;-69
2023/09/09 04:19:46;;;;;;;9.68;5.32;;;16.80;99.90;;;;;;5037208;28;20026;-68
2023/09/09 04:22:12;;;;;;;11.23;5.35;;;16.90;99.90;;;;;;5037039;28;20055;-68
2023/09/09 04:24:38;;;;;;;9.02;5.80;;;16.80;99.90;;;;;;5036961;28;20029;-68
2023/09/09 04:27:04;;;;;;;12.80;5.65;;;16.90;99.90;;;;;;5019886;28;20026;-68
2023/09/09 04:29:29;;;;;;;8.30;5.18;;;16.90;99.90;;;;;;5019830;28;20034;-68
2023/09/09 04:31:55;;;;;;;9.25;5.22;;;16.80;99.90;;;;;;5037229;28;20032;-68
2023/09/09 04:34:21;;;;;;;10.93;5.20;;;16.80;99.90;;;;;;5037126;28;20021;-68
2023/09/09 04:36:46;;;;;;;10.43;5.53;;;16.80;99.90;;;;;;5037268;28;20032;-69
2023/09/09 04:39:15;;;;;;;8.07;5.82;;;16.80;99.90;;;;;;5019600;28;20025;-68
2023/09/09 04:41:42;;;;;;;10.45;5.47;;;16.70;99.90;;;;;;5036814;28;20021;-68
2023/09/09 04:44:08;;;;;;;11.65;5.53;;;16.70;99.90;;;;;;5036885;28;20026;-69
2023/09/09 04:46:34;;;;;;;6.20;4.82;;;16.60;99.90;;;;;;5019534;28;20033;-69
2023/09/09 04:49:00;;;;;;;8.18;5.45;;;16.70;99.90;;;;;;5036796;28;20028;-68
2023/09/09 04:51:25;;;;;;;9.00;5.25;;;16.60;99.90;;;;;;5037047;28;20021;-69
2023/09/09 04:53:51;;;;;;;14.07;4.88;;;16.60;99.90;;;;;;5037421;28;20026;-68
2023/09/09 04:56:16;;;;;;;11.23;5.65;;;16.70;99.90;;;;;;5019639;28;20112;-68
2023/09/09 04:58:42;;;;;;;9.70;5.60;;;16.70;99.90;;;;;;5036902;28;20103;-68
2023/09/09 05:01:09;;;;;;;8.98;5.30;;;16.70;99.90;;;;;;5019636;28;20033;-69
2023/09/09 05:03:34;;;;;;;10.45;5.22;;;16.70;99.90;;;;;;5036760;28;20029;-69
2023/09/09 05:06:00;;;;;;;10.75;5.38;;;16.60;99.90;;;;;;5020049;28;20030;-69
2023/09/09 05:08:26;;;;;;;8.00;5.07;;;16.40;99.90;;;;;;5019632;28;20076;-68
2023/09/09 05:10:51;;;;;;;6.85;5.15;;;16.40;99.90;;;;;;5019652;28;20029;-69
2023/09/09 05:13:17;;;;;;;7.97;5.43;;;16.40;99.90;;;;;;5019266;28;20124;-69
2023/09/09 05:15:42;;;;;;;7.35;5.13;;;16.40;99.90;;;;;;5019404;28;20112;-69
2023/09/09 05:18:08;;;;;;;7.85;4.85;;;16.40;99.90;;;;;;5019166;28;20025;-69
2023/09/09 05:20:33;;;;;;;16.30;5.47;;;16.60;99.90;;;;;;5019157;28;20025;-68
2023/09/09 05:22:59;;;;;;;10.50;5.30;;;16.50;99.90;;;;;;5019186;28;20037;-68
2023/09/09 05:25:24;;;;;;;9.88;5.25;;;16.50;99.90;;;;;;5036530;28;20101;-69
2023/09/09 05:27:50;;;;;;;8.10;5.38;;;16.50;99.90;;;;;;5037202;28;20021;-69
2023/09/09 05:30:15;;;;;;;10.55;5.07;;;16.60;99.90;;;;;;5059703;22;20099;-65
2023/09/09 05:32:41;;;;;;;13.23;5.70;;;16.50;99.90;;;;;;5036479;28;20022;-65
2023/09/09 05:35:10;;;;;;;8.88;5.47;;;16.50;99.90;;;;;;5036664;28;20029;-65
2023/09/09 05:37:36;;;;;;;10.68;4.90;;;16.50;99.90;;;;;;5036490;28;20163;-65
2023/09/09 05:40:02;;;;;;;8.13;5.03;;;16.50;99.90;;;;;;5037983;28;20021;-65
2023/09/09 05:42:28;;;;;;;7.55;5.07;;;16.60;99.90;;;;;;5040307;28;20021;-65
2023/09/09 05:44:53;;;;;;;10.57;5.20;;;16.50;99.90;;;;;;5022950;28;20052;-65
2023/09/09 05:47:19;;;;;;;8.35;5.53;;;16.50;99.90;;;;;;5040088;28;20018;-65
2023/09/09 05:49:45;;;;;;;13.60;5.47;;;16.50;99.90;;;;;;5022783;28;20116;-65
2023/09/09 05:52:12;;;;;;;6.50;4.93;;;16.50;99.90;;;;;;5022382;28;20022;-65
2023/09/09 05:54:38;;;;;;;10.05;5.00;;;16.50;99.90;;;;;;5039896;28;20028;-65
2023/09/09 05:57:04;;;;;;;8.40;5.30;;;16.50;99.90;;;;;;5023105;28;20108;-65
2023/09/09 05:59:29;;;;;;;6.72;5.15;;;16.50;99.90;;;;;;5022609;28;20025;-65
2023/09/09 06:01:55;;;;;;;8.30;5.28;;;16.60;99.90;;;;;;5039563;28;20166;-65
2023/09/09 06:04:20;;;;;;;7.88;5.25;;;16.70;99.90;;;;;;5022581;28;20021;-65
2023/09/09 06:06:47;;;;;;;7.53;5.18;;;16.90;99.90;;;;;;5022407;28;20029;-65
2023/09/09 06:09:12;;;;;;;11.05;6.25;;;16.90;99.90;;;;;;5021923;28;20025;-65
2023/09/09 06:11:38;;;;;;;12.30;5.95;;;16.90;99.90;;;;;;5022253;28;20163;-65
2023/09/09 06:14:03;;;;;;;9.07;5.13;;;17.00;99.90;;;;;;5022393;28;20078;-65
2023/09/09 06:16:29;;;;;;;10.60;5.95;;;17.00;99.90;;;;;;5022561;28;20025;-65
2023/09/09 06:18:54;;;;;;;9.35;6.03;;;17.10;99.90;;;;;;5022374;28;20022;-65
2023/09/09 06:21:21;;;;;;;7.78;5.35;;;17.10;99.90;;;;;;5021960;28;20025;-65
2023/09/09 06:23:46;;;;;;;11.13;5.45;;;17.10;99.90;;;;;;5022197;28;20026;-65
2023/09/09 06:26:12;;;;;;;10.80;6.00;;;17.20;99.90;;;;;;5022513;28;20213;-65
2023/09/09 06:28:38;;;;;;;10.15;5.95;;;17.30;99.90;;;;;;5021541;28;20025;-65
2023/09/09 06:31:03;;;;;;;8.50;5.93;;;17.30;99.90;;;;;;5022365;28;20029;-65
2023/09/09 06:33:29;;;;;;;11.70;7.43;;;17.20;99.90;;;;;;5021650;28;20021;-65
2023/09/09 06:35:55;;;;;;;8.93;5.60;;;17.10;99.90;;;;;;5021660;28;20026;-65
2023/09/09 06:38:21;;;;;;;8.73;5.68;;;17.30;99.90;;;;;;5021769;28;20029;-64
2023/09/09 06:40:47;;;;;;;9.43;5.68;;;17.40;99.90;;;;;;5021466;28;20025;-64
2023/09/09 06:43:15;;;;;;;9.75;6.22;;;17.50;99.90;;;;;;5022382;28;20041;-65
2023/09/09 06:45:41;;;;;;;9.02;6.00;;;17.50;99.90;;;;;;5021334;28;20111;-65
2023/09/09 06:48:07;;;;;;;9.32;6.28;;;17.50;99.90;;;;;;5021465;28;20048;-65
2023/09/09 06:50:32;;;;;;;11.27;6.00;;;17.50;99.90;;;;;;5021043;28;20025;-65
2023/09/09 06:52:58;;;;;;;9.05;5.75;;;17.60;99.90;;;;;;5021986;28;20117;-64
2023/09/09 06:55:23;;;;;;;7.38;5.47;;;17.70;99.90;;;;;;5021234;28;20029;-65
2023/09/09 06:57:49;;;;;;;9.02;6.30;;;17.80;99.90;;;;;;5021540;28;20026;-65
2023/09/09 07:00:14;;;;;;;11.70;6.10;;;17.90;99.90;;;;;;5021192;28;20048;-65
2023/09/09 07:02:40;;;;;;;8.75;5.47;;;17.90;99.90;;;;;;5021585;28;20025;-65
2023/09/09 07:05:07;;;;;;;10.93;5.80;;;18.00;99.90;;;;;;5020891;28;20022;-65
2023/09/09 07:07:32;;;;;;;6.50;5.28;;;18.00;99.90;;;;;;5021488;28;20163;-64
2023/09/09 07:09:58;;;;;;;8.45;5.43;;;18.20;99.90;;;;;;5038348;28;20045;-65
2023/09/09 07:12:24;;;;;;;7.75;5.45;;;18.30;99.90;;;;;;5038531;28;20021;-65
2023/09/09 07:14:49;;;;;;;9.55;5.50;;;18.40;99.90;;;;;;5021044;28;20026;-65
2023/09/09 07:17:15;;;;;;;9.73;5.63;;;18.40;99.90;;;;;;5038305;28;20017;-65
2023/09/09 07:19:40;;;;;;;12.35;5.60;;;18.40;99.90;;;;;;5020893;28;20021;-64
2023/09/09 07:22:06;;;;;;;9.82;5.78;;;18.50;99.90;;;;;;5020820;28;20023;-65
2023/09/09 07:24:32;;;;;;;9.77;5.35;;;18.70;99.90;;;;;;5038493;28;20018;-65
2023/09/09 07:26:59;;;;;;;10.10;5.53;;;18.80;99.90;;;;;;5037948;28;20029;-64
2023/09/09 07:29:25;;;;;;;9.55;5.65;;;18.90;99.90;;;;;;5038419;28;20025;-64
2023/09/09 07:31:50;;;;;;;8.57;5.60;;;18.90;99.90;;;;;;5020894;28;20040;-65
2023/09/09 07:34:16;;;;;;;8.63;5.63;;;19.10;99.90;;;;;;5020600;28;20032;-66
2023/09/09 07:36:41;;;;;;;8.10;5.38;;;19.10;99.90;;;;;;5020542;28;20022;-65
2023/09/09 07:39:07;;;;;;;8.85;5.70;;;18.90;99.90;;;;;;5037774;28;20029;-65
2023/09/09 07:41:33;;;;;;;10.68;5.95;;;19.10;99.90;;;;;;5020343;28;20033;-64
2023/09/09 07:43:58;;;;;;;9.80;5.53;;;19.20;99.90;;;;;;5037701;28;20025;-65
2023/09/09 07:46:24;;;;;;;8.40;5.53;;;19.30;99.90;;;;;;5020800;28;20064;-65
2023/09/09 07:48:49;;;;;;;7.78;5.50;;;19.40;99.90;;;;;;5037668;28;20049;-65
2023/09/09 07:51:15;;;;;;;15.07;6.13;;;19.50;99.90;;;;;;5021518;28;20024;-65
2023/09/09 07:53:40;;;;;;;9.07;6.15;;;19.60;99.90;;;;;;5020560;28;20018;-65
2023/09/09 07:56:06;;;;;;;9.10;5.90;;;19.60;99.90;;;;;;5020953;28;20032;-63
2023/09/09 07:58:31;;;;;;;12.00;6.55;;;19.70;99.90;;;;;;5037764;28;20032;-63
2023/09/09 08:01:01;;;;;;;11.75;5.90;;;19.80;99.90;;;;;;5020159;28;20040;-63
2023/09/09 08:03:26;;;;;;;7.07;5.80;;;19.90;99.90;;;;;;5037210;28;20022;-63
2023/09/09 08:05:56;;;;;;;14.20;6.50;;;19.90;99.90;;;;;;5019877;28;20056;-62
2023/09/09 08:08:22;;;;;;;8.15;5.50;;;20.00;99.90;;;;;;5020007;28;20022;-63
2023/09/09 08:10:49;;;;;;;7.22;6.20;;;20.00;99.90;;;;;;5020016;28;20025;-63
2023/09/09 08:13:15;;;;;;;8.48;6.57;;;20.10;99.90;;;;;;5020114;28;20033;-63
2023/09/09 08:15:40;;;;;;;10.90;5.90;;;20.20;99.90;;;;;;5020786;28;20025;-63
2023/09/09 08:18:06;;;;;;;10.35;6.38;;;20.40;99.90;;;;;;5020804;28;20068;-63
2023/09/09 08:20:31;;;;;;;9.25;5.70;;;20.50;99.90;;;;;;5019866;28;20029;-63
2023/09/09 08:22:57;;;;;;;8.68;6.05;;;20.60;99.90;;;;;;5019723;28;20048;-63
2023/09/09 08:25:22;;;;;;;10.13;5.55;;;20.80;99.90;;;;;;5020564;28;20025;-63
2023/09/09 08:27:48;;;;;;;10.15;6.00;;;20.90;99.90;;;;;;5037355;28;20021;-63
2023/09/09 08:30:15;;;;;;;9.73;6.72;;;21.00;99.90;;;;;;5037055;28;20041;-63
2023/09/09 08:32:40;;;;;;;12.98;6.18;;;21.10;99.90;;;;;;5020842;28;20028;-64
2023/09/09 08:35:06;;;;;;;9.27;5.70;;;21.10;99.90;;;;;;5020387;28;20029;-64
2023/09/09 08:37:32;;;;;;;8.93;5.72;;;21.20;99.90;;;;;;5019610;28;20021;-64
2023/09/09 08:39:57;;;;;;;9.68;6.25;;;21.30;99.90;;;;;;5036981;28;20117;-64
2023/09/09 08:42:58;;;;;;;14.23;6.45;;;21.40;99.90;;;;;;5020614;28;20025;-64
2023/09/09 08:45:41;;;;;;;7.85;5.72;;;21.60;99.90;;;;;;5036848;28;20022;-64
2023/09/09 08:48:10;;;;;;;6.78;5.53;;;21.70;99.90;;;;;;5019559;28;20089;-64
2023/09/09 08:50:38;;;;;;;10.77;5.20;;;21.80;99.90;;;;;;5019467;28;20025;-64
2023/09/09 08:53:06;;;;;;;5.53;4.60;;;22.00;99.90;;;;;;5019429;28;20021;-64
2023/09/09 08:55:32;;;;;;;9.43;4.97;;;22.10;99.90;;;;;;5036918;28;20048;-64
2023/09/09 08:57:58;;;;;;;7.50;4.95;;;22.20;99.90;;;;;;5036856;28;20053;-64
2023/09/09 09:00:33;;;;;;;7.20;4.72;;;22.30;99.90;;;;;;5036884;28;20037;-64
2023/09/09 09:03:00;;;;;;;8.70;5.13;;;22.60;99.90;;;;;;5036678;28;20017;-64
2023/09/09 09:05:26;;;;;;;5.25;4.20;;;22.80;99.90;;;;;;5019350;28;20113;-64
2023/09/09 09:07:51;;;;;;;5.88;4.13;;;22.80;99.90;;;;;;5036900;28;20063;-64
2023/09/09 09:10:18;;;;;;;8.20;4.72;;;22.80;99.90;;;;;;5036666;28;20033;-64
2023/09/09 09:12:44;;;;;;;9.75;4.85;;;22.90;99.90;;;;;;5036774;28;20014;-64
2023/09/09 09:15:10;;;;;;;5.93;4.40;;;22.90;99.90;;;;;;5021429;28;20022;-64
2023/09/09 09:17:40;;;;;;;7.43;4.95;;;23.30;99.90;;;;;;5023106;28;20026;-64
2023/09/09 09:20:10;;;;;;;6.47;4.43;;;23.30;99.90;;;;;;5023087;28;20026;-64
2023/09/09 09:22:38;;;;;;;9.73;4.80;;;23.60;99.90;;;;;;5022902;28;20048;-64
2023/09/09 09:25:04;;;;;;;6.25;4.95;;;23.80;99.90;;;;;;5022954;28;20044;-64
2023/09/09 09:27:31;;;;;;;5.40;4.10;;;24.10;99.90;;;;;;5023232;28;20025;-64
2023/09/09 09:29:57;;;;;;;9.98;4.50;;;24.10;99.90;;;;;;5039981;28;20034;-64
2023/09/09 09:32:22;;;;;;;6.82;4.32;;;24.10;99.90;;;;;;5023284;28;20044;-64
2023/09/09 09:34:50;;;;;;;8.50;4.90;;;24.10;99.90;;;;;;5022864;28;20053;-64
2023/09/09 09:37:15;;;;;;;8.30;4.53;;;24.20;99.90;;;;;;5022790;28;20108;-64
2023/09/09 09:39:43;;;;;;;6.03;4.82;;;24.40;99.90;;;;;;5023050;28;20060;-64
2023/09/09 09:42:11;;;;;;;6.00;4.47;;;24.60;99.90;;;;;;5040412;28;20018;-64
2023/09/09 09:44:37;;;;;;;7.60;5.05;;;24.70;99.90;;;;;;5023033;28;20108;-64
2023/09/09 09:47:04;;;;;;;6.45;4.55;;;24.70;99.90;;;;;;5040153;28;20108;-64
2023/09/09 09:49:37;;;;;;;7.88;4.35;;;24.70;99.90;;;;;;5039957;28;20029;-64
2023/09/09 09:52:05;;;;;;;6.18;4.32;;;24.60;99.90;;;;;;5039843;28;20043;-64
2023/09/09 09:54:32;;;;;;;5.13;4.22;;;24.70;99.90;;;;;;5040284;28;20017;-64
2023/09/09 09:57:03;;;;;;;5.95;4.55;;;24.60;99.90;;;;;;5039960;28;20097;-64
2023/09/09 09:59:33;;;;;;;5.80;4.28;;;24.80;99.90;;;;;;5023111;28;20025;-64
2023/09/09 10:02:00;;;;;;;5.03;4.47;;;24.90;99.90;;;;;;5022426;28;20025;-64
2023/09/09 10:04:27;;;;;;;5.15;4.55;;;25.20;99.90;;;;;;5022300;28;20078;-64
2023/09/09 10:07:00;;;;;;;5.03;4.50;;;25.20;99.90;;;;;;5039545;28;20021;-64
2023/09/09 10:09:47;;;;;;;8.27;4.15;;;25.30;99.90;;;;;;5021986;28;20021;-64
2023/09/09 10:12:22;;;;;;;4.68;4.10;;;25.30;99.90;;;;;;5022977;28;20108;-64
2023/09/09 10:14:49;;;;;;;7.00;4.53;;;25.60;99.90;;;;;;5022979;28;20117;-64
2023/09/09 10:17:17;;;;;;;7.43;4.38;;;25.80;99.90;;;;;;5022473;28;20024;-64
2023/09/09 10:19:43;;;;;;;9.63;4.55;;;26.10;99.90;;;;;;5021851;28;20029;-64
2023/09/09 10:22:10;;;;;;;5.35;4.38;;;26.30;99.90;;;;;;5022292;28;20029;-64
2023/09/09 10:24:37;;;;;;;14.02;4.78;;;26.40;99.90;;;;;;5021895;28;20103;-64
2023/09/09 10:27:03;;;;;;;7.72;4.63;;;26.60;99.90;;;;;;5021670;28;20021;-64
2023/09/09 10:29:34;;;;;;;7.53;4.43;;;26.80;99.90;;;;;;5022006;28;20029;-64
2023/09/09 10:32:04;;;;;;;;;;;27.00;99.90;;;;;;5022158;28;20028;-64
2023/09/09 10:34:33;;;;;;;7.93;4.32;;;27.10;99.90;;;;;;5022129;28;19976;-64
2023/09/09 10:37:00;;;;;;;8.35;5.25;;;27.10;99.90;;;;;;5039242;28;20056;-64
2023/09/09 10:39:25;;;;;;;8.05;4.78;;;27.30;99.90;;;;;;5021868;28;20053;-64
2023/09/09 10:41:52;;;;;;;6.82;4.88;;;27.30;99.90;;;;;;5021604;28;20032;-64
2023/09/09 10:44:18;;;;;;;7.80;4.65;;;27.50;99.90;;;;;;5039138;28;20030;-64
2023/09/09 10:46:43;;;;;;;8.65;4.55;;;27.70;99.90;;;;;;5038815;28;20056;-64
2023/09/09 10:49:16;;;;;;;7.57;4.75;;;27.90;99.90;;;;;;5039341;28;20025;-64
2023/09/09 10:51:50;;;;;;;7.07;4.63;;;27.90;99.90;;;;;;5038987;28;20014;-64
2023/09/09 10:54:17;;;;;;;6.57;4.35;;;27.90;99.90;;;;;;5038792;28;20033;-64
2023/09/09 10:56:48;;;;;;;5.90;4.68;;;27.80;99.90;;;;;;5038647;28;20038;-64
2023/09/09 10:59:23;;;;;;;7.10;5.05;;;27.50;99.90;;;;;;5038579;28;20033;-65
2023/09/09 11:02:07;;;;;;;7.25;4.50;;;27.40;99.90;;;;;;5038705;28;20029;-64
2023/09/09 11:04:35;;;;;;;7.55;4.55;;;27.50;99.90;;;;;;5021115;28;20032;-64
2023/09/09 11:07:10;;;;;;;8.38;4.95;;;27.80;99.90;;;;;;5021939;28;20079;-64
2023/09/09 11:09:52;;;;;;;10.93;4.72;;;28.00;99.90;;;;;;5021595;28;20018;-64
2023/09/09 11:12:26;;;;;;;10.25;4.97;;;27.70;99.90;;;;;;5021791;28;20029;-64
2023/09/09 11:15:07;;;;;;;10.10;4.53;;;27.40;99.90;;;;;;5021074;28;20021;-64
2023/09/09 11:17:39;;;;;;;8.93;4.80;;;27.30;99.90;;;;;;5020944;28;20028;-64
2023/09/09 11:20:09;;;;;;;6.05;5.45;;;27.30;99.90;;;;;;5021254;28;20024;-64
2023/09/09 11:22:35;;;;;;;8.25;4.70;;;27.30;99.90;;;;;;5021614;28;20045;-64
2023/09/09 11:25:03;;;;;;;10.43;5.38;;;27.30;99.90;;;;;;5020677;28;20018;-65
2023/09/09 11:27:29;;;;;;;6.65;4.90;;;27.40;99.90;;;;;;5038279;28;20017;-64
2023/09/09 11:29:54;;;;;;;6.22;5.25;;;27.30;99.90;;;;;;5038247;28;20091;-64
2023/09/09 11:32:27;;;;;;;12.75;5.30;;;27.30;99.90;;;;;;5038210;28;20029;-64
2023/09/09 11:34:54;;;;;;;5.20;4.38;;;27.40;99.90;;;;;;5021363;28;20026;-64
2023/09/09 11:37:22;;;;;;;6.53;4.70;;;27.40;99.90;;;;;;5020288;28;20022;-64
2023/09/09 11:39:54;;;;;;;7.90;4.72;;;27.50;99.90;;;;;;5020487;28;20108;-64
2023/09/09 11:42:20;;;;;;;8.05;5.20;;;27.70;99.90;;;;;;5037873;28;20021;-64
2023/09/09 11:44:46;;;;;;;7.35;5.28;;;27.70;99.90;;;;;;5020387;28;20028;-64
2023/09/09 11:47:14;;;;;;;7.15;4.53;;;27.60;99.90;;;;;;5037861;28;20032;-64
2023/09/09 11:49:43;;;;;;;6.07;4.75;;;27.60;99.90;;;;;;5020267;28;20026;-64
2023/09/09 11:52:09;;;;;;;7.43;4.82;;;27.80;99.90;;;;;;5037659;28;20021;-64
2023/09/09 11:54:35;;;;;;;5.10;4.60;;;28.40;99.90;;;;;;5020293;28;20032;-64
2023/09/09 11:57:08;;;;;;;7.18;4.22;;;28.50;99.90;;;;;;5038006;28;20049;-64
2023/09/09 11:59:44;;;;;;;8.85;4.57;;;28.30;99.90;;;;;;5037685;28;20033;-64
2023/09/09 12:02:17;;;;;;;7.35;4.40;;;28.20;99.90;;;;;;5020109;28;20060;-64
2023/09/09 12:04:57;;;;;;;6.57;4.55;;;28.10;99.90;;;;;;5037492;28;20021;-64
2023/09/09 12:07:27;;;;;;;9.38;5.15;;;28.00;99.90;;;;;;5020131;28;20035;-64
2023/09/09 12:09:53;;;;;;;7.05;5.25;;;28.10;99.90;;;;;;5037394;28;20020;-64
2023/09/09 12:12:19;;;;;;;9.40;5.03;;;28.10;99.90;;;;;;5037314;28;20104;-64
2023/09/09 12:14:46;;;;;;;9.02;5.03;;;28.20;99.90;;;;;;5037302;28;20061;-64
2023/09/09 12:17:12;;;;;;;6.50;5.13;;;28.40;99.90;;;;;;5019905;28;20025;-64
2023/09/09 12:19:37;;;;;;;8.13;5.13;;;28.40;99.90;;;;;;5020478;28;20032;-67
2023/09/09 12:22:03;;;;;;;5.28;4.55;;;28.30;99.90;;;;;;5019813;28;20030;-68
2023/09/09 12:24:38;;;;;;;9.10;5.97;;;28.80;99.90;;;;;;5020100;28;20028;-67
2023/09/09 12:27:04;;;;;;;6.80;5.20;;;28.80;99.90;;;;;;5019800;28;20030;-67
2023/09/09 12:29:29;;;;;;;7.05;5.50;;;28.70;99.90;;;;;;5019726;28;20034;-67
2023/09/09 12:31:58;;;;;;;9.00;5.53;;;28.50;99.90;;;;;;5037380;28;20164;-67
2023/09/09 12:34:25;;;;;;;8.35;4.85;;;28.40;99.90;;;;;;5036919;28;20029;-68
2023/09/09 12:36:55;;;;;;;5.35;4.72;;;28.30;99.90;;;;;;5036992;28;20032;-67
2023/09/09 12:39:25;;;;;;;7.85;5.55;;;28.30;99.90;;;;;;5037140;28;20029;-67
2023/09/09 12:41:57;;;;;;;9.90;5.25;;;28.30;99.90;;;;;;5036944;28;20046;-67